createdAt,value
2018-09-17T00:00:03.457Z,119
2018-09-17T00:05:03.449Z,119
2018-09-17T00:10:03.461Z,119
2018-09-17T00:15:03.460Z,119
2018-09-17T00:20:03.461Z,119
2018-09-17T00:25:03.479Z,119
2018-09-17T00:30:03.462Z,119
2018-09-17T00:35:03.469Z,119
2018-09-17T00:40:03.476Z,119
2018-09-17T00:45:03.474Z,119
2018-09-17T00:50:03.473Z,119
2018-09-17T00:55:03.489Z,119
2018-09-17T01:00:03.481Z,119
2018-09-17T01:05:03.484Z,119
2018-09-17T01:10:03.509Z,119
2018-09-17T01:15:03.485Z,119
2018-09-17T01:20:03.491Z,119
2018-09-17T01:25:03.499Z,119
2018-09-17T01:30:03.493Z,119
2018-09-17T01:35:03.498Z,119
2018-09-17T01:40:03.508Z,119
2018-09-17T01:45:03.503Z,119
2018-09-17T01:50:03.513Z,119
2018-09-17T01:55:03.514Z,119
2018-09-17T02:00:03.516Z,119
2018-09-17T02:05:03.519Z,119
2018-09-17T02:10:03.656Z,119
2018-09-17T02:15:03.537Z,119
2018-09-17T02:20:03.528Z,119
2018-09-17T02:25:03.542Z,119
2018-09-17T02:30:03.529Z,119
2018-09-17T02:35:03.544Z,119
2018-09-17T02:40:03.559Z,119
2018-09-17T02:45:03.539Z,119
2018-09-17T02:50:03.548Z,119
2018-09-17T02:55:03.546Z,119
2018-09-17T03:00:03.543Z,119
2018-09-17T03:05:03.547Z,119
2018-09-17T03:10:03.567Z,119
2018-09-17T03:15:03.553Z,119
2018-09-17T03:20:03.556Z,119
2018-09-17T03:25:03.559Z,119
2018-09-17T03:30:03.555Z,119
2018-09-17T03:35:03.559Z,119
2018-09-17T03:40:03.575Z,119
2018-09-17T03:45:03.588Z,119
2018-09-17T03:50:03.572Z,119
2018-09-17T03:55:03.580Z,119
2018-09-17T04:00:03.576Z,119
2018-09-17T04:05:03.576Z,119
2018-09-17T04:10:03.601Z,119
2018-09-17T04:15:03.599Z,119
2018-09-17T04:20:03.596Z,119
2018-09-17T04:25:03.600Z,119
2018-09-17T04:30:03.591Z,119
2018-09-17T04:35:03.597Z,119
2018-09-17T04:40:03.611Z,119
2018-09-17T04:45:03.602Z,119
2018-09-17T04:50:03.603Z,119
2018-09-17T04:55:03.624Z,119
2018-09-17T05:00:03.612Z,119
2018-09-17T05:05:03.614Z,119
2018-09-17T05:10:03.624Z,119
2018-09-17T05:15:03.616Z,119
2018-09-17T05:20:03.624Z,119
2018-09-17T05:25:03.632Z,119
2018-09-17T05:30:03.633Z,119
2018-09-17T05:35:03.815Z,119
2018-09-17T05:40:03.655Z,119
2018-09-17T05:45:03.636Z,119
2018-09-17T05:50:03.645Z,119
2018-09-17T05:55:03.663Z,119
2018-09-17T06:00:03.649Z,119
2018-09-17T06:05:03.652Z,119
2018-09-17T06:10:03.657Z,119
2018-09-17T06:15:03.659Z,119
2018-09-17T06:20:03.657Z,119
2018-09-17T06:25:03.674Z,119
2018-09-17T06:30:03.673Z,119
2018-09-17T06:35:03.665Z,119
2018-09-17T06:40:03.675Z,119
2018-09-17T06:45:03.812Z,119
2018-09-17T06:50:03.681Z,119
2018-09-17T06:55:03.685Z,119
2018-09-17T07:00:03.675Z,119
2018-09-17T07:05:03.680Z,119
2018-09-17T07:10:03.694Z,119
2018-09-17T07:15:03.702Z,119
2018-09-17T07:20:03.689Z,119
2018-09-17T07:25:03.713Z,119
2018-09-17T07:30:03.693Z,119
2018-09-17T07:35:03.697Z,119
2018-09-17T07:40:03.720Z,119
2018-09-17T07:45:03.703Z,119
2018-09-17T07:50:03.722Z,119
2018-09-17T07:55:03.715Z,119
2018-09-17T08:00:03.710Z,119
2018-09-17T08:05:03.760Z,119
2018-09-17T08:10:03.723Z,119
2018-09-17T08:15:03.716Z,114.86
2018-09-17T08:20:03.740Z,119
2018-09-17T08:25:03.740Z,104.29
2018-09-17T08:30:03.737Z,110.58
2018-09-17T08:35:03.732Z,98.1
2018-09-17T08:40:03.757Z,103.73
2018-09-17T08:45:03.733Z,93.76
2018-09-17T08:50:03.733Z,104.68
2018-09-17T08:55:03.750Z,86.26
2018-09-17T09:00:03.739Z,77.17
2018-09-17T09:05:03.863Z,82.29
2018-09-17T09:10:03.750Z,70.82
2018-09-17T09:15:03.765Z,69.22
2018-09-17T09:20:03.769Z,39.42
2018-09-17T09:25:03.759Z,14.66
2018-09-17T09:30:03.765Z,-2.72
2018-09-17T09:35:03.766Z,-6
2018-09-17T09:40:03.780Z,-6
2018-09-17T09:45:03.763Z,-6
2018-09-17T09:50:03.765Z,-3.84
2018-09-17T09:55:03.785Z,-4.9
2018-09-17T10:00:03.820Z,-6
2018-09-17T10:05:03.777Z,-6
2018-09-17T10:10:03.793Z,-6
2018-09-17T10:15:03.777Z,-6
2018-09-17T10:20:03.785Z,-6
2018-09-17T10:25:03.794Z,-6
2018-09-17T10:30:03.930Z,-6
2018-09-17T10:35:03.787Z,-6
2018-09-17T10:40:03.810Z,-6
2018-09-17T10:45:03.800Z,-6
2018-09-17T10:50:03.796Z,-6
2018-09-17T10:55:03.818Z,-6
2018-09-17T11:00:03.801Z,-6
2018-09-17T11:05:03.803Z,-6
2018-09-17T11:10:03.829Z,-6
2018-09-17T11:15:03.807Z,-6
2018-09-17T11:20:03.816Z,-6
2018-09-17T11:25:03.893Z,-6
2018-09-17T11:30:03.816Z,-6
2018-09-17T11:35:03.820Z,-6
2018-09-17T11:40:04.836Z,-6
2018-09-17T11:45:03.841Z,-6
2018-09-17T11:50:03.825Z,-6
2018-09-17T11:55:03.829Z,-6
2018-09-17T12:00:03.849Z,-6
2018-09-17T12:05:03.831Z,-6
2018-09-17T12:10:03.844Z,-6
2018-09-17T12:15:03.862Z,-6
2018-09-17T12:20:03.845Z,-6
2018-09-17T12:25:03.848Z,-6
2018-09-17T12:30:03.858Z,-6
2018-09-17T12:35:03.858Z,-6
2018-09-17T12:40:03.873Z,-6
2018-09-17T12:45:03.940Z,-6
2018-09-17T12:50:03.866Z,-6
2018-09-17T12:55:03.867Z,-6
2018-09-17T13:00:03.873Z,-6
2018-09-17T13:05:03.865Z,-6
2018-09-17T13:10:03.870Z,-6
2018-09-17T13:15:03.883Z,-6
2018-09-17T13:20:03.880Z,-6
2018-09-17T13:25:04.183Z,-6
2018-09-17T13:30:03.908Z,-6
2018-09-17T13:35:03.889Z,-6
2018-09-17T13:40:03.890Z,-6
2018-09-17T13:45:03.927Z,-6
2018-09-17T13:50:03.917Z,-6
2018-09-17T13:55:03.894Z,-6
2018-09-17T14:00:03.916Z,-6
2018-09-17T14:05:03.928Z,-6
2018-09-17T14:10:04.021Z,-6
2018-09-17T14:15:03.915Z,-6
2018-09-17T14:20:03.941Z,-6
2018-09-17T14:25:03.927Z,-6
2018-09-17T14:30:03.924Z,-6
2018-09-17T14:35:03.944Z,-6
2018-09-17T14:40:03.947Z,-6
2018-09-17T14:45:03.945Z,-6
2018-09-17T14:50:03.924Z,-6
2018-09-17T14:55:03.964Z,-6
2018-09-17T15:00:03.946Z,-6
2018-09-17T15:05:03.954Z,-6
2018-09-17T15:10:04.009Z,-6
2018-09-17T15:15:04.040Z,-6
2018-09-17T15:20:04.179Z,-6
2018-09-17T15:25:03.973Z,-6
2018-09-17T15:30:03.977Z,-6
2018-09-17T15:35:03.981Z,-6
2018-09-17T15:40:04.086Z,-6
2018-09-17T15:45:03.974Z,-6
2018-09-17T15:50:04.041Z,-6
2018-09-17T15:55:03.970Z,-6
2018-09-17T16:00:03.980Z,-6
2018-09-17T16:05:03.973Z,-6
2018-09-17T16:10:03.973Z,-6
2018-09-17T16:15:03.984Z,-6
2018-09-17T16:20:04.348Z,-6
2018-09-17T16:25:03.980Z,-6
2018-09-17T16:30:03.995Z,-6
2018-09-17T16:35:03.992Z,-6
2018-09-17T16:40:03.999Z,-6
2018-09-17T16:45:03.999Z,-6
2018-09-17T16:50:03.999Z,-6
2018-09-17T16:55:03.994Z,-6
2018-09-17T17:00:04.011Z,-6
2018-09-17T17:05:04.061Z,-6
2018-09-17T17:10:04.127Z,-6
2018-09-17T17:15:04.021Z,-6
2018-09-17T17:20:04.003Z,-6
2018-09-17T17:25:04.014Z,-6
2018-09-17T17:30:04.019Z,-6
2018-09-17T17:35:04.016Z,-6
2018-09-17T17:40:04.132Z,9.03
2018-09-17T17:45:04.041Z,2.73
2018-09-17T17:50:04.042Z,15.16
2018-09-17T17:55:04.040Z,23.11
2018-09-17T18:00:04.060Z,26.94
2018-09-17T18:05:04.036Z,25.75
2018-09-17T18:10:04.053Z,20.88
2018-09-17T18:15:04.159Z,25.71
2018-09-17T18:20:04.061Z,36.26
2018-09-17T18:25:04.044Z,49.69
2018-09-17T18:30:04.068Z,49.48
2018-09-17T18:35:04.045Z,68.09
2018-09-17T18:40:04.056Z,65.49
2018-09-17T18:45:04.101Z,62.56
2018-09-17T18:50:04.111Z,65.98
2018-09-17T18:55:04.074Z,67.43
2018-09-17T19:00:04.175Z,74.52
2018-09-17T19:05:04.081Z,80.8
2018-09-17T19:10:04.079Z,80.99
2018-09-17T19:15:04.223Z,78.61
2018-09-17T19:20:04.238Z,74.85
2018-09-17T19:25:04.077Z,77.25
2018-09-17T19:30:04.210Z,80.07
2018-09-17T19:35:04.086Z,84.92
2018-09-17T19:40:04.119Z,83.31
2018-09-17T19:45:04.088Z,88.59
2018-09-17T19:50:04.396Z,92.37
2018-09-17T19:55:04.092Z,100.24
2018-09-17T20:00:04.098Z,87.56
2018-09-17T20:05:04.103Z,88.75
2018-09-17T20:10:04.223Z,83.61
2018-09-17T20:15:04.105Z,87.22
2018-09-17T20:20:04.136Z,79.04
2018-09-17T20:25:04.113Z,76.39
2018-09-17T20:30:04.113Z,80.89
2018-09-17T20:35:04.127Z,84.32
2018-09-17T20:40:04.116Z,80.32
2018-09-17T20:45:04.121Z,85.95
2018-09-17T20:50:04.127Z,88.85
2018-09-17T20:55:04.184Z,84.92
2018-09-17T21:00:04.131Z,90.36
2018-09-17T21:05:04.157Z,81.44
2018-09-17T21:10:04.134Z,92.85
2018-09-17T21:15:04.142Z,95.91
2018-09-17T21:20:04.139Z,93.18
2018-09-17T21:25:04.229Z,95.76
2018-09-17T21:30:04.152Z,93.17
2018-09-17T21:35:04.187Z,89.28
2018-09-17T21:40:04.159Z,99.18
2018-09-17T21:45:04.155Z,111.28
2018-09-17T21:50:04.180Z,117.8
2018-09-17T21:55:04.164Z,119
2018-09-17T22:00:04.158Z,119
2018-09-17T22:05:04.197Z,119
2018-09-17T22:10:04.167Z,119
2018-09-17T22:15:04.172Z,119
2018-09-17T22:20:04.197Z,119
2018-09-17T22:25:04.171Z,119
2018-09-17T22:30:04.186Z,119
2018-09-17T22:35:04.258Z,119
2018-09-17T22:40:04.184Z,119
2018-09-17T22:45:04.184Z,119
2018-09-17T22:50:04.198Z,119
2018-09-17T22:55:04.185Z,119
2018-09-17T23:00:04.196Z,119
2018-09-17T23:05:04.193Z,119
2018-09-17T23:10:04.192Z,119
2018-09-17T23:15:04.193Z,119
2018-09-17T23:20:06.700Z,119
2018-09-17T23:25:04.206Z,119
2018-09-17T23:30:04.214Z,119
2018-09-17T23:35:04.218Z,119
2018-09-17T23:40:04.218Z,119
2018-09-17T23:45:04.214Z,119
2018-09-17T23:50:04.211Z,119
2018-09-17T23:55:04.218Z,119
